Time;durP1;ratioP1;P1;durP2;ratioP2;P2;SDS_P1;SDS_P2;PMS_P1;PMS_P2;Temp;Humidity;BMP_temperature;BMP_pressure;BME280_temperature;BME280_humidity;BME280_pressure;Samples;Min_cycle;Max_cycle;Signal;HPM_P1;HPM_P2
2021/05/17 00:01:31;;;;;;;;;;;;;;;12.17;72.48;98664.34;2241504;39;19940;-79
2021/05/17 00:03:04;;;;;;;;;;;;;;;12.16;72.51;98671.53;2241337;39;19940;-79
2021/05/17 00:04:36;;;;;;;;;;;;;;;12.16;72.56;98668.03;2242443;39;19947;-78
2021/05/17 00:06:08;;;;;;;;;;;;;;;12.13;72.64;98671.06;2241900;39;19994;-80
2021/05/17 00:07:39;;;;;;;;;;;;;;;12.10;72.81;98666.94;2243753;39;19940;-79
2021/05/17 00:09:11;;;;;;;;;;;;;;;12.06;73.12;98660.28;2243186;39;19942;-79
2021/05/17 00:10:42;;;;;;;;;;;;;;;12.01;73.50;98671.56;2244593;39;19944;-77
2021/05/17 00:12:13;;;;;;;;;;;;;;;11.96;73.68;98665.91;2244005;39;19997;-81
2021/05/17 00:13:44;;;;;;;;;;;;;;;11.96;74.05;98670.41;2245543;39;19944;-79
2021/05/17 00:15:18;;;;;;;;;;;;;;;11.94;74.02;98667.13;2243253;39;19943;-78
2021/05/17 00:16:50;;;;;;;;;;;;;;;11.98;74.10;98666.59;2246606;39;19936;-79
2021/05/17 00:18:21;;;;;;;;;;;;;;;11.98;73.92;98671.09;2241475;39;19967;-78
2021/05/17 00:19:52;;;;;;;;;;;;;;;11.97;74.03;98674.75;2246139;39;19940;-80
2021/05/17 00:23:09;;;;;;;;;;;;;;;12.02;73.89;98667.84;2262582;39;19939;-80
2021/05/17 00:24:39;;;;;;;;;;;;;;;12.03;73.79;98668.72;2244362;39;19944;-81
2021/05/17 00:26:11;;;;;;;;;;;;;;;11.99;73.77;98665.56;2245369;39;20061;-81
2021/05/17 00:27:43;;;;;;;;;;;;;;;11.98;73.89;98669.28;2243145;39;19939;-81
2021/05/17 00:29:14;;;;;;;;;;;;;;;11.98;73.83;98669.28;2244373;39;19942;-81
2021/05/17 00:30:45;;;;;;;;;;;;;;;12.02;73.82;98670.53;2244011;39;19936;-79
2021/05/17 00:32:16;;;;;;;;;;;;;;;12.04;73.66;98674.88;2237013;39;19931;-81
2021/05/17 00:33:48;;;;;;;;;;;;;;;12.02;73.70;98669.72;2240413;39;21570;-80
2021/05/17 00:35:19;;;;;;;;;;;;;;;12.01;73.59;98668.06;2239706;39;19950;-80
2021/05/17 00:36:51;;;;;;;;;;;;;;;11.98;73.42;98669.28;2236364;40;19944;-81
2021/05/17 00:38:23;;;;;;;;;;;;;;;12.01;73.43;98663.50;2236111;39;19943;-80
2021/05/17 00:39:54;;;;;;;;;;;;;;;12.00;73.27;98672.56;2243057;39;19939;-81
2021/05/17 00:41:26;;;;;;;;;;;;;;;11.97;73.27;98670.28;2238562;39;19943;-79
2021/05/17 00:42:57;;;;;;;;;;;;;;;11.95;73.30;98660.75;2243476;39;19947;-80
2021/05/17 00:44:28;;;;;;;;;;;;;;;11.95;73.11;98663.44;2242314;39;20178;-80
2021/05/17 00:45:59;;;;;;;;;;;;;;;11.97;73.03;98666.72;2248402;39;19947;-81
2021/05/17 00:47:31;;;;;;;;;;;;;;;11.97;72.86;98666.72;2246292;39;19966;-80
2021/05/17 00:49:03;;;;;;;;;;;;;;;11.99;72.81;98668.25;2243336;39;19939;-81
2021/05/17 00:50:34;;;;;;;;;;;;;;;11.98;72.80;98674.63;2246436;39;19951;-80
2021/05/17 00:52:05;;;;;;;;;;;;;;;11.98;72.54;98673.78;2245252;39;20360;-81
2021/05/17 00:53:37;;;;;;;;;;;;;;;11.96;72.10;98678.44;2243478;39;19936;-80
2021/05/17 00:55:09;;;;;;;;;;;;;;;11.94;71.89;98673.28;2245862;39;19947;-79
2021/05/17 00:56:41;;;;;;;;;;;;;;;11.92;71.90;98672.66;2244963;39;19943;-81
2021/05/17 00:58:13;;;;;;;;;;;;;;;11.92;71.75;98666.47;2240296;39;19944;-79
2021/05/17 00:59:44;;;;;;;;;;;;;;;11.90;71.83;98672.03;2245542;39;19942;-79
2021/05/17 01:01:16;;;;;;;;;;;;;;;11.91;71.59;98675.53;2253035;39;19939;-79
2021/05/17 01:02:47;;;;;;;;;;;;;;;11.90;71.44;98672.03;2246861;39;19935;-79
2021/05/17 01:04:18;;;;;;;;;;;;;;;11.92;71.39;98669.97;2239464;39;20108;-81
2021/05/17 01:05:49;;;;;;;;;;;;;;;11.90;71.08;98673.84;2247143;39;20463;-81
2021/05/17 01:07:24;;;;;;;;;;;;;;;11.88;71.17;98668.69;2249672;39;19947;-81
2021/05/17 01:08:59;;;;;;;;;;;;;;;11.85;70.93;98672.56;2241643;39;19948;-81
2021/05/17 01:10:30;;;;;;;;;;;;;;;11.84;70.96;98667.41;2242583;39;20328;-80
2021/05/17 01:12:02;;;;;;;;;;;;;;;11.83;71.05;98679.97;2240264;39;20406;-81
2021/05/17 01:13:33;;;;;;;;;;;;;;;11.83;70.94;98673.75;2243093;39;19940;-81
2021/05/17 01:15:05;;;;;;;;;;;;;;;11.85;71.04;98675.22;2242530;39;19946;-80
2021/05/17 01:16:36;;;;;;;;;;;;;;;11.85;70.96;98669.88;2246894;39;19944;-81
2021/05/17 01:18:08;;;;;;;;;;;;;;;11.83;70.89;98668.41;2250641;39;20241;-82
2021/05/17 01:19:41;;;;;;;;;;;;;;;11.83;70.84;98679.97;2255323;39;19942;-81
2021/05/17 01:21:16;;;;;;;;;;;;;;;11.81;70.79;98671.28;2249322;39;19943;-81
2021/05/17 01:22:51;;;;;;;;;;;;;;;11.84;70.81;98678.09;2248930;39;19944;-81
2021/05/17 01:24:31;;;;;;;;;;;;;;;11.87;70.67;98672.38;2247045;39;19956;-80
2021/05/17 01:26:04;;;;;;;;;;;;;;;11.85;70.51;98677.09;2237223;40;20278;-81
2021/05/17 01:27:36;;;;;;;;;;;;;;;11.85;70.14;98679.78;2234758;39;19990;-81
2021/05/17 01:29:08;;;;;;;;;;;;;;;11.87;69.77;98677.75;2241014;39;20019;-80
2021/05/17 01:30:40;;;;;;;;;;;;;;;11.85;69.45;98675.22;2253706;39;19935;-81
2021/05/17 01:32:12;;;;;;;;;;;;;;;11.87;68.99;98675.06;2255756;39;19972;-81
2021/05/17 01:33:45;;;;;;;;;;;;;;;11.88;69.15;98679.41;2251046;39;19943;-81
2021/05/17 01:35:16;;;;;;;;;;;;;;;11.90;68.99;98676.53;2238623;39;20219;-81
2021/05/17 01:36:53;;;;;;;;;;;;;;;11.93;68.77;98673.50;2191782;40;20281;-81
2021/05/17 01:38:28;;;;;;;;;;;;;;;11.92;68.38;98671.81;2235552;39;19943;-82
2021/05/17 01:40:01;;;;;;;;;;;;;;;12.00;68.00;98675.25;2251856;39;19947;-81
2021/05/17 01:41:32;;;;;;;;;;;;;;;12.00;67.51;98679.78;2222851;39;23368;-82
2021/05/17 01:43:03;;;;;;;;;;;;;;;12.01;67.39;98684.94;2226069;40;20287;-81
2021/05/17 01:45:04;;;;;;;;;;;;;;;11.99;67.30;98683.47;2240442;39;19947;-80
2021/05/17 01:46:37;;;;;;;;;;;;;;;11.97;67.34;98678.31;2231506;40;19948;-81
2021/05/17 01:48:08;;;;;;;;;;;;;;;11.98;67.37;98688.00;2231782;39;19940;-80
2021/05/17 01:49:40;;;;;;;;;;;;;;;12.02;67.07;98685.78;2237840;40;20033;-80
2021/05/17 01:51:12;;;;;;;;;;;;;;;12.04;66.76;98682.91;2230848;39;19944;-81
2021/05/17 01:52:43;;;;;;;;;;;;;;;12.05;66.53;98685.41;2234881;40;19964;-81
2021/05/17 01:54:15;;;;;;;;;;;;;;;12.01;66.56;98682.25;2240844;39;19940;-80
2021/05/17 01:55:48;;;;;;;;;;;;;;;12.01;66.70;98684.94;2244202;39;19944;-82
2021/05/17 01:57:20;;;;;;;;;;;;;;;12.02;66.42;98691.97;2243059;39;20255;-80
2021/05/17 01:58:52;;;;;;;;;;;;;;;12.01;66.52;98682.25;2244171;39;19940;-80
2021/05/17 02:00:25;;;;;;;;;;;;;;;12.05;66.47;98676.53;2242992;39;19944;-80
2021/05/17 02:01:56;;;;;;;;;;;;;;;12.03;66.54;98682.09;2244671;39;20622;-81
2021/05/17 02:03:27;;;;;;;;;;;;;;;12.05;66.52;98682.72;2239219;39;20325;-79
2021/05/17 02:04:58;;;;;;;;;;;;;;;12.04;66.18;98689.13;2237881;39;20013;-81
2021/05/17 02:06:29;;;;;;;;;;;;;;;11.99;66.49;98681.66;2242127;39;20035;-81
2021/05/17 02:08:01;;;;;;;;;;;;;;;11.97;66.41;98686.34;2250438;39;19936;-80
2021/05/17 02:09:33;;;;;;;;;;;;;;;12.04;66.51;98688.28;2237592;39;20013;-81
2021/05/17 02:11:10;;;;;;;;;;;;;;;12.05;66.19;98681.91;2237859;39;19947;-81
2021/05/17 02:12:42;;;;;;;;;;;;;;;12.04;66.12;98688.28;2244218;39;19936;-80
2021/05/17 02:14:14;;;;;;;;;;;;;;;12.02;66.15;98701.84;2256162;39;20412;-80
2021/05/17 02:15:47;;;;;;;;;;;;;;;11.98;66.21;98690.69;2246311;39;19947;-80
2021/05/17 02:17:18;;;;;;;;;;;;;;;11.95;66.51;98690.22;2237716;39;19936;-80
2021/05/17 02:18:50;;;;;;;;;;;;;;;11.93;66.60;98690.38;2237261;39;19948;-79
2021/05/17 02:20:22;;;;;;;;;;;;;;;11.95;66.74;98692.88;2235979;39;19936;-80
2021/05/17 02:21:54;;;;;;;;;;;;;;;11.91;66.86;98688.91;2231503;40;19936;-80
2021/05/17 02:23:25;;;;;;;;;;;;;;;11.92;66.96;98688.72;2231414;39;20257;-80
2021/05/17 02:24:56;;;;;;;;;;;;;;;11.91;67.01;98691.59;2238009;40;19959;-80
2021/05/17 02:26:28;;;;;;;;;;;;;;;11.88;67.03;98683.91;2236923;39;19943;-81
2021/05/17 02:27:59;;;;;;;;;;;;;;;11.90;67.00;98689.91;2238085;40;19936;-81
2021/05/17 02:29:31;;;;;;;;;;;;;;;11.89;66.86;98685.59;2241964;39;20226;-80
2021/05/17 02:31:02;;;;;;;;;;;;;;;11.90;66.85;98687.25;2245428;39;19935;-80
2021/05/17 02:32:33;;;;;;;;;;;;;;;11.88;66.79;98684.75;2242691;39;19947;-81
2021/05/17 02:34:05;;;;;;;;;;;;;;;11.89;66.90;98688.25;2244420;39;19943;-82
2021/05/17 02:35:36;;;;;;;;;;;;;;;11.88;66.85;98682.09;2232496;39;20507;-80
2021/05/17 02:37:07;;;;;;;;;;;;;;;11.87;66.80;98680.41;2237952;39;19947;-80
2021/05/17 02:38:38;;;;;;;;;;;;;;;11.85;66.90;98680.59;2236898;39;20001;-82
2021/05/17 02:40:10;;;;;;;;;;;;;;;11.85;66.87;98685.94;2244141;39;20216;-81
2021/05/17 02:41:42;;;;;;;;;;;;;;;11.84;66.92;98691.50;2241997;39;19951;-80
2021/05/17 02:43:15;;;;;;;;;;;;;;;11.85;67.13;98685.94;2243999;39;19939;-82
2021/05/17 02:44:48;;;;;;;;;;;;;;;11.89;67.01;98686.44;2239243;39;19946;-82
2021/05/17 02:46:23;;;;;;;;;;;;;;;11.88;67.08;98689.28;2237275;39;19994;-81
2021/05/17 02:48:28;;;;;;;;;;;;;;;11.85;67.24;98693.97;2219800;39;19941;-81
2021/05/17 02:49:59;;;;;;;;;;;;;;;11.85;67.31;98693.97;2240310;39;19947;-81
2021/05/17 02:51:37;;;;;;;;;;;;;;;11.83;67.34;98692.50;2241629;39;20014;-81
2021/05/17 02:53:37;;;;;;;;;;;;;;;11.82;67.39;98697.03;2243480;39;19944;-81
2021/05/17 02:55:09;;;;;;;;;;;;;;;11.80;67.65;98692.91;2224425;39;19933;-81
2021/05/17 02:57:02;;;;;;;;;;;;;;;11.81;67.65;98702.56;2243202;39;19940;-80
2021/05/17 02:58:36;;;;;;;;;;;;;;;11.81;67.49;98695.38;2244150;39;19946;-80
2021/05/17 03:00:09;;;;;;;;;;;;;;;11.81;67.65;98699.88;2234925;39;20223;-79
2021/05/17 03:01:41;;;;;;;;;;;;;;;11.79;67.61;98705.44;2237576;40;19983;-80
2021/05/17 03:03:13;;;;;;;;;;;;;;;11.78;67.62;98705.63;2235027;39;19936;-81
2021/05/17 03:04:47;;;;;;;;;;;;;;;11.77;67.58;98709.31;2237863;39;19940;-81
2021/05/17 03:06:26;;;;;;;;;;;;;;;11.77;67.88;98707.47;2236461;39;19965;-80
2021/05/17 03:07:59;;;;;;;;;;;;;;;11.76;67.71;98713.84;2238093;40;19956;-80
2021/05/17 03:09:31;;;;;;;;;;;;;;;11.77;67.73;98710.13;2229493;39;20029;-80
2021/05/17 03:11:05;;;;;;;;;;;;;;;11.76;67.83;98713.84;2233682;40;19940;-80
2021/05/17 03:12:39;;;;;;;;;;;;;;;11.76;67.79;98710.34;2234191;39;19947;-78
2021/05/17 03:14:11;;;;;;;;;;;;;;;11.74;67.79;98717.72;2240072;39;19951;-79
2021/05/17 03:15:43;;;;;;;;;;;;;;;11.73;67.65;98716.06;2233704;39;19936;-79
2021/05/17 03:17:15;;;;;;;;;;;;;;;11.73;67.77;98713.38;2228160;40;19948;-79
2021/05/17 03:18:47;;;;;;;;;;;;;;;11.76;67.64;98715.69;2230034;40;19956;-78
2021/05/17 03:20:24;;;;;;;;;;;;;;;11.77;67.66;98725.38;2235501;39;19979;-80
2021/05/17 03:21:56;;;;;;;;;;;;;;;11.76;67.86;98718.38;2235378;39;19982;-78
2021/05/17 03:23:28;;;;;;;;;;;;;;;11.75;67.79;98728.25;2238417;39;20220;-78
2021/05/17 03:24:59;;;;;;;;;;;;;;;11.71;67.86;98725.09;2235448;40;19947;-79
2021/05/17 03:26:30;;;;;;;;;;;;;;;11.71;67.92;98733.13;2236054;39;20233;-79
2021/05/17 03:28:02;;;;;;;;;;;;;;;11.73;67.89;98724.09;2246457;39;19948;-79
2021/05/17 03:29:33;;;;;;;;;;;;;;;11.74;67.91;98736.47;2245404;39;20626;-79
2021/05/17 03:31:04;;;;;;;;;;;;;;;11.70;67.90;98728.81;2242304;39;20017;-79
2021/05/17 03:32:34;;;;;;;;;;;;;;;11.70;68.00;98728.81;2240218;39;19992;-79
2021/05/17 03:34:05;;;;;;;;;;;;;;;11.74;67.74;98729.28;2235836;40;19982;-79
2021/05/17 03:35:37;;;;;;;;;;;;;;;11.72;67.66;98728.63;2222448;39;19941;-78
2021/05/17 03:37:08;;;;;;;;;;;;;;;11.73;67.80;98729.44;2229544;39;19943;-79
2021/05/17 03:38:39;;;;;;;;;;;;;;;11.74;67.80;98733.78;2229301;39;19940;-78
2021/05/17 03:40:10;;;;;;;;;;;;;;;11.76;67.69;98727.22;2242808;39;19939;-79
2021/05/17 03:41:41;;;;;;;;;;;;;;;11.76;67.54;98729.06;2243665;39;20702;-79
2021/05/17 03:43:13;;;;;;;;;;;;;;;11.74;67.48;98729.28;2234622;39;19989;-78
2021/05/17 03:44:48;;;;;;;;;;;;;;;11.73;67.47;98732.13;2232051;39;20266;-80
2021/05/17 03:46:23;;;;;;;;;;;;;;;11.71;67.29;98738.47;2239583;39;19944;-79
2021/05/17 03:47:55;;;;;;;;;;;;;;;11.73;67.18;98724.09;2229588;39;20380;-78
2021/05/17 03:49:26;;;;;;;;;;;;;;;11.74;66.84;98734.63;2236681;39;19960;-80
2021/05/17 03:50:57;;;;;;;;;;;;;;;11.72;66.98;98733.97;2236211;39;19939;-79
2021/05/17 03:52:28;;;;;;;;;;;;;;;11.75;66.91;98738.13;2239440;39;19942;-79
2021/05/17 03:53:58;;;;;;;;;;;;;;;11.74;66.89;98741.81;2240400;39;20395;-78
2021/05/17 03:55:29;;;;;;;;;;;;;;;11.73;66.92;98741.00;2243086;39;20051;-78
2021/05/17 03:57:02;;;;;;;;;;;;;;;11.73;66.85;98737.47;2234006;39;19948;-79
2021/05/17 03:58:35;;;;;;;;;;;;;;;11.74;66.83;98737.31;2229512;40;20289;-78
2021/05/17 04:00:09;;;;;;;;;;;;;;;11.71;66.96;98740.34;2219355;39;20294;-78
2021/05/17 04:01:40;;;;;;;;;;;;;;;11.71;67.17;98743.84;2229613;40;19941;-79
2021/05/17 04:03:15;;;;;;;;;;;;;;;11.69;67.42;98743.22;2233692;39;19989;-79
2021/05/17 04:04:53;;;;;;;;;;;;;;;11.66;67.66;98745.44;2241303;39;19948;-79
2021/05/17 04:06:27;;;;;;;;;;;;;;;11.63;67.73;98743.09;2230883;39;19943;-79
2021/05/17 04:08:25;;;;;;;;;;;;;;;11.61;67.84;98742.44;2234985;39;19947;-78
2021/05/17 04:13:35;;;;;;;;;;;;;;;11.66;67.65;98746.25;2235200;39;19936;-79
2021/05/17 04:15:06;;;;;;;;;;;;;;;11.65;67.72;98749.94;2239008;39;20025;-79
2021/05/17 04:16:37;;;;;;;;;;;;;;;11.67;67.61;98752.41;2238375;39;19942;-79
2021/05/17 04:18:08;;;;;;;;;;;;;;;11.71;67.59;98759.91;2240119;39;19943;-77
2021/05/17 04:19:39;;;;;;;;;;;;;;;11.73;67.34;98764.25;2238572;39;19939;-79
2021/05/17 04:21:10;;;;;;;;;;;;;;;11.74;67.36;98758.72;2241262;39;19947;-79
2021/05/17 04:22:42;;;;;;;;;;;;;;;11.77;67.13;98762.88;2235555;39;19948;-79
2021/05/17 04:24:13;;;;;;;;;;;;;;;11.75;67.18;98760.38;2234356;39;20296;-78
2021/05/17 04:25:44;;;;;;;;;;;;;;;11.73;67.05;98759.72;2236627;39;20541;-81
2021/05/17 04:27:15;;;;;;;;;;;;;;;11.73;67.09;98759.72;2235008;39;19940;-79
2021/05/17 04:28:47;;;;;;;;;;;;;;;11.70;66.89;98758.25;2236395;39;19936;-78
2021/05/17 04:30:17;;;;;;;;;;;;;;;11.75;66.93;98767.56;2234279;39;19936;-79
2021/05/17 04:31:48;;;;;;;;;;;;;;;11.74;66.93;98764.06;2239635;39;19955;-79
2021/05/17 04:33:20;;;;;;;;;;;;;;;11.72;67.07;98755.38;2230041;39;19943;-79
2021/05/17 04:34:51;;;;;;;;;;;;;;;11.73;66.96;98764.25;2232101;39;19936;-79
2021/05/17 04:36:21;;;;;;;;;;;;;;;11.71;67.04;98775.97;2238756;39;19944;-79
2021/05/17 04:37:53;;;;;;;;;;;;;;;11.74;67.20;98772.09;2239932;39;20402;-79
2021/05/17 04:39:24;;;;;;;;;;;;;;;11.76;67.15;98774.59;2233850;39;20025;-79
2021/05/17 04:40:55;;;;;;;;;;;;;;;11.71;67.35;98773.28;2235043;39;19952;-79
2021/05/17 04:42:26;;;;;;;;;;;;;;;11.68;67.48;98780.84;2236305;39;19943;-77
2021/05/17 04:43:58;;;;;;;;;;;;;;;11.66;67.65;98781.03;2236377;39;19940;-79
2021/05/17 04:45:28;;;;;;;;;;;;;;;11.66;67.73;98777.56;2235652;39;19943;-79
2021/05/17 04:46:59;;;;;;;;;;;;;;;11.62;68.27;98779.72;2241998;39;19962;-80
2021/05/17 04:48:30;;;;;;;;;;;;;;;11.54;68.80;98779.81;2229820;39;20312;-78
2021/05/17 04:50:01;;;;;;;;;;;;;;;11.45;69.58;98789.78;2230201;40;19948;-79
2021/05/17 04:51:32;;;;;;;;;;;;;;;11.38;70.01;98787.00;2234921;39;19943;-79
2021/05/17 04:53:03;;;;;;;;;;;;;;;11.33;70.49;98792.06;2238754;39;20500;-79
2021/05/17 04:54:34;;;;;;;;;;;;;;;11.31;71.13;98794.09;2230846;39;19937;-78
2021/05/17 04:56:05;;;;;;;;;;;;;;;11.27;71.46;98792.78;2229289;39;20038;-79
2021/05/17 04:57:36;;;;;;;;;;;;;;;11.23;71.65;98791.47;2228730;39;20208;-79
2021/05/17 04:59:08;;;;;;;;;;;;;;;11.22;71.69;98793.31;2232042;39;19954;-78
2021/05/17 05:00:39;;;;;;;;;;;;;;;11.23;71.81;98791.47;2237756;39;19948;-77
2021/05/17 05:02:10;;;;;;;;;;;;;;;11.23;71.83;98788.81;2238809;39;20017;-78
2021/05/17 05:03:41;;;;;;;;;;;;;;;11.23;71.83;98794.16;2231483;39;19944;-78
2021/05/17 05:05:12;;;;;;;;;;;;;;;11.24;71.81;98801.19;2229399;39;19937;-79
2021/05/17 05:06:43;;;;;;;;;;;;;;;11.23;71.84;98805.69;2230696;40;19940;-78
2021/05/17 05:08:14;;;;;;;;;;;;;;;11.21;71.90;98796.16;2230411;39;19944;-78
2021/05/17 05:09:45;;;;;;;;;;;;;;;11.23;71.93;98804.84;2235754;39;20256;-78
2021/05/17 05:11:16;;;;;;;;;;;;;;;11.24;71.84;98802.00;2238465;39;19956;-78
2021/05/17 05:12:47;;;;;;;;;;;;;;;11.26;71.78;98801.81;2242999;39;19966;-78
2021/05/17 05:14:19;;;;;;;;;;;;;;;11.26;71.74;98804.47;2235760;39;19936;-79
2021/05/17 05:15:51;;;;;;;;;;;;;;;11.28;71.66;98807.00;2230542;39;19998;-79
2021/05/17 05:17:22;;;;;;;;;;;;;;;11.28;71.65;98807.00;2230683;39;19951;-78
2021/05/17 05:18:53;;;;;;;;;;;;;;;11.32;71.45;98811.81;2230400;40;20335;-79
2021/05/17 05:20:24;;;;;;;;;;;;;;;11.36;71.29;98809.59;2230612;39;19940;-79
2021/05/17 05:21:54;;;;;;;;;;;;;;;11.36;71.05;98809.59;2230356;40;20166;-78
2021/05/17 05:23:25;;;;;;;;;;;;;;;11.38;70.77;98813.75;2234084;39;19936;-80
2021/05/17 05:24:57;;;;;;;;;;;;;;;11.39;70.67;98812.75;2230058;40;19952;-79
2021/05/17 05:26:47;;;;;;;;;;;;;;;11.41;70.56;98814.41;2229529;39;20046;-78
2021/05/17 05:28:21;;;;;;;;;;;;;;;11.45;70.52;98807.66;2238811;39;20346;-80
2021/05/17 05:30:10;;;;;;;;;;;;;;;11.42;70.05;98813.41;2236740;39;19950;-78
2021/05/17 05:31:43;;;;;;;;;;;;;;;11.36;69.96;98818.44;2235157;40;19940;-79
2021/05/17 05:33:15;;;;;;;;;;;;;;;11.38;69.76;98819.09;2235108;39;20316;-79
2021/05/17 05:34:46;;;;;;;;;;;;;;;11.35;69.68;98813.28;2240597;39;19964;-79
2021/05/17 05:36:17;;;;;;;;;;;;;;;11.36;69.67;98813.09;2234077;39;19944;-79
2021/05/17 05:37:49;;;;;;;;;;;;;;;11.41;69.53;98817.91;2231256;39;20382;-79
2021/05/17 05:39:19;;;;;;;;;;;;;;;11.42;69.47;98814.22;2235628;39;19936;-79
2021/05/17 05:40:50;;;;;;;;;;;;;;;11.46;69.21;98820.03;2236524;39;19940;-79
2021/05/17 05:42:23;;;;;;;;;;;;;;;11.49;69.19;98822.38;2233056;39;19944;-79
2021/05/17 05:43:54;;;;;;;;;;;;;;;11.53;69.20;98819.16;2235252;39;20396;-79
2021/05/17 05:45:26;;;;;;;;;;;;;;;11.56;68.89;98825.97;2234317;39;19948;-79
2021/05/17 05:46:56;;;;;;;;;;;;;;;11.59;68.79;98820.28;2231053;39;19940;-78
2021/05/17 05:48:29;;;;;;;;;;;;;;;11.69;68.46;98818.16;2234831;39;19970;-79
2021/05/17 05:50:00;;;;;;;;;;;;;;;11.77;67.77;98811.06;2237609;39;19947;-78
2021/05/17 05:51:31;;;;;;;;;;;;;;;11.85;67.16;98814.47;2229561;39;19944;-79
2021/05/17 05:53:02;;;;;;;;;;;;;;;11.93;66.30;98815.41;2235295;39;20304;-79
2021/05/17 05:54:33;;;;;;;;;;;;;;;11.95;65.75;98816.06;2235768;39;19940;-80
2021/05/17 05:56:05;;;;;;;;;;;;;;;12.00;65.57;98825.22;2233441;39;20347;-80
2021/05/17 05:57:41;;;;;;;;;;;;;;;12.04;65.13;98822.19;2235454;39;19940;-80
2021/05/17 05:59:12;;;;;;;;;;;;;;;12.07;64.69;98824.50;2236312;39;19984;-79
2021/05/17 06:00:44;;;;;;;;;;;;;;;12.12;63.84;98822.09;2239998;39;20013;-78
2021/05/17 06:02:15;;;;;;;;;;;;;;;12.13;63.50;98807.69;2241691;39;19935;-80
2021/05/17 06:03:46;;;;;;;;;;;;;;;12.11;63.51;98826.63;2240217;39;20017;-78
2021/05/17 06:05:17;;;;;;;;;;;;;;;12.16;63.31;98828.75;2239996;39;19956;-80
2021/05/17 06:06:48;;;;;;;;;;;;;;;12.21;63.48;98830.88;2247064;39;19947;-78
2021/05/17 06:08:19;;;;;;;;;;;;;;;12.25;63.10;98834.84;2243745;39;19940;-79
2021/05/17 06:09:50;;;;;;;;;;;;;;;12.21;62.77;98822.84;2238658;39;20177;-79
2021/05/17 06:11:22;;;;;;;;;;;;;;;12.17;62.72;98831.25;2232163;39;19944;-78
2021/05/17 06:12:53;;;;;;;;;;;;;;;12.18;62.53;98832.09;2237944;39;19967;-81
2021/05/17 06:14:24;;;;;;;;;;;;;;;12.19;62.61;98832.91;2237410;39;19948;-79
2021/05/17 06:15:57;;;;;;;;;;;;;;;12.15;62.84;98844.00;2237525;39;19939;-80
2021/05/17 06:17:27;;;;;;;;;;;;;;;12.17;63.14;98847.31;2238187;39;19951;-79
2021/05/17 06:19:00;;;;;;;;;;;;;;;12.14;63.26;98850.34;2234562;40;19991;-79
2021/05/17 06:20:32;;;;;;;;;;;;;;;12.14;63.45;98849.53;2232680;39;20294;-78
2021/05/17 06:22:03;;;;;;;;;;;;;;;12.06;63.54;98847.78;2239616;39;19940;-79
2021/05/17 06:23:33;;;;;;;;;;;;;;;12.04;63.43;98844.47;2236700;39;19940;-79
2021/05/17 06:25:05;;;;;;;;;;;;;;;12.02;63.40;98855.34;2236196;39;19959;-79
2021/05/17 06:26:38;;;;;;;;;;;;;;;11.97;63.08;98849.72;2235235;39;20526;-78
2021/05/17 06:28:09;;;;;;;;;;;;;;;11.92;63.26;98846.72;2237852;39;19932;-79
2021/05/17 06:29:42;;;;;;;;;;;;;;;11.91;63.61;98849.59;2236391;39;20534;-80
2021/05/17 06:31:15;;;;;;;;;;;;;;;11.93;63.73;98860.94;2234724;39;19937;-80
2021/05/17 06:32:47;;;;;;;;;;;;;;;11.90;63.88;98864.84;2232375;39;20204;-79
2021/05/17 06:34:18;;;;;;;;;;;;;;;11.87;63.90;98867.88;2238825;39;19947;-79
2021/05/17 06:35:52;;;;;;;;;;;;;;;11.90;64.00;98866.66;2234285;39;19944;-79
2021/05/17 06:37:24;;;;;;;;;;;;;;;11.91;64.25;98877.19;2234681;40;19943;-79
2021/05/17 06:38:55;;;;;;;;;;;;;;;11.94;63.55;98871.47;2233402;39;19948;-79
2021/05/17 06:40:25;;;;;;;;;;;;;;;11.90;63.61;98870.19;2237571;39;19940;-80
2021/05/17 06:41:56;;;;;;;;;;;;;;;11.84;63.69;98878.94;2238725;39;19940;-79
2021/05/17 06:43:28;;;;;;;;;;;;;;;11.84;63.92;98877.09;2248476;39;19942;-78
2021/05/17 06:44:59;;;;;;;;;;;;;;;11.83;64.16;98880.78;2233120;39;19940;-79
2021/05/17 06:46:31;;;;;;;;;;;;;;;11.88;64.13;98890.09;2235102;40;19943;-79
2021/05/17 06:48:03;;;;;;;;;;;;;;;11.88;63.90;98877.56;2231461;39;19943;-80
2021/05/17 06:49:34;;;;;;;;;;;;;;;11.87;63.68;98886.59;2237773;39;19952;-80
2021/05/17 06:51:07;;;;;;;;;;;;;;;11.91;63.66;98887.06;2236102;39;19936;-78
2021/05/17 06:52:39;;;;;;;;;;;;;;;11.98;63.72;98888.88;2230643;40;20253;-79
2021/05/17 06:54:14;;;;;;;;;;;;;;;12.08;63.74;98882.44;2229982;39;19944;-79
2021/05/17 06:55:54;;;;;;;;;;;;;;;12.19;63.43;98884.63;2230334;39;19943;-79
2021/05/17 06:57:37;;;;;;;;;;;;;;;12.31;63.37;98893.06;2235775;39;19948;-78
2021/05/17 06:59:13;;;;;;;;;;;;;;;12.40;63.12;98900.00;2242287;39;19939;-79
2021/05/17 07:00:44;;;;;;;;;;;;;;;12.42;62.72;98894.44;2233102;39;19935;-79
2021/05/17 07:02:18;;;;;;;;;;;;;;;12.29;62.57;98893.25;2234625;39;19943;-78
2021/05/17 07:03:50;;;;;;;;;;;;;;;12.31;62.85;98895.75;2231748;39;19936;-79
2021/05/17 07:05:21;;;;;;;;;;;;;;;12.44;62.74;98893.25;2212180;39;19951;-79
2021/05/17 07:06:56;;;;;;;;;;;;;;;12.55;62.18;98904.50;2219955;40;19956;-80
2021/05/17 07:12:11;;;;;;;;;;;;;;;12.68;61.58;98895.81;2232642;39;19936;-80
2021/05/17 07:13:42;;;;;;;;;;;;;;;12.83;61.22;98907.38;2235973;39;19940;-79
2021/05/17 07:15:13;;;;;;;;;;;;;;;12.86;60.50;98896.25;2236555;39;19993;-79
2021/05/17 07:16:45;;;;;;;;;;;;;;;12.98;60.46;98898.44;2233683;39;19936;-79
2021/05/17 07:18:16;;;;;;;;;;;;;;;13.11;60.07;98896.75;2236675;39;19943;-79
2021/05/17 07:19:47;;;;;;;;;;;;;;;13.13;59.74;98895.72;2240851;39;19988;-81
2021/05/17 07:24:57;;;;;;;;;;;;;;;13.22;59.49;98900.81;2228908;40;20288;-79
2021/05/17 07:26:27;;;;;;;;;;;;;;;13.24;59.08;98904.13;2230732;39;19998;-79
2021/05/17 07:27:59;;;;;;;;;;;;;;;13.16;59.20;98901.56;2239160;39;19948;-81
2021/05/17 07:29:32;;;;;;;;;;;;;;;13.14;59.11;98905.44;2236146;39;19943;-78
2021/05/17 07:31:05;;;;;;;;;;;;;;;13.07;59.27;98902.69;2233041;39;19943;-78
2021/05/17 07:32:36;;;;;;;;;;;;;;;13.04;59.57;98905.75;2235649;39;19993;-80
2021/05/17 07:34:08;;;;;;;;;;;;;;;13.08;59.66;98904.34;2240649;39;19947;-79
2021/05/17 07:35:38;;;;;;;;;;;;;;;13.19;59.73;98903.88;2238956;39;19948;-79
2021/05/17 07:37:10;;;;;;;;;;;;;;;13.33;59.21;98896.78;2240749;39;19958;-79
2021/05/17 07:38:42;;;;;;;;;;;;;;;13.41;59.01;98909.28;2245202;39;19944;-79
2021/05/17 07:40:13;;;;;;;;;;;;;;;13.44;59.05;98919.63;2239282;39;20283;-78
2021/05/17 07:41:44;;;;;;;;;;;;;;;13.40;58.09;98910.31;2238527;39;19943;-80
2021/05/17 07:43:15;;;;;;;;;;;;;;;13.31;58.32;98908.75;2237206;39;19990;-78
2021/05/17 07:44:46;;;;;;;;;;;;;;;13.32;57.99;98908.53;2234556;39;20025;-77
2021/05/17 07:46:18;;;;;;;;;;;;;;;13.17;58.19;98913.13;2238765;39;19940;-79
2021/05/17 07:47:48;;;;;;;;;;;;;;;13.02;58.70;98916.66;2235369;39;19940;-78
2021/05/17 07:49:23;;;;;;;;;;;;;;;13.04;59.10;98919.16;2237086;39;19943;-78
2021/05/17 07:50:54;;;;;;;;;;;;;;;13.07;58.89;98919.63;2240473;39;20315;-82
2021/05/17 07:52:25;;;;;;;;;;;;;;;13.14;58.58;98908.94;2242220;39;19940;-79
2021/05/17 07:53:56;;;;;;;;;;;;;;;13.26;58.26;98912.81;2235961;39;19936;-79
2021/05/17 07:55:27;;;;;;;;;;;;;;;13.37;58.00;98914.16;2237519;39;19936;-79
2021/05/17 07:56:58;;;;;;;;;;;;;;;13.40;57.89;98921.88;2235905;39;19952;-81
2021/05/17 07:58:29;;;;;;;;;;;;;;;13.48;57.72;98925.44;2236280;39;19936;-78
2021/05/17 08:00:00;;;;;;;;;;;;;;;13.51;57.41;98925.88;2232151;39;19936;-79
2021/05/17 08:01:31;;;;;;;;;;;;;;;13.45;57.09;98926.66;2229985;39;19955;-77
2021/05/17 08:03:02;;;;;;;;;;;;;;;13.44;57.17;98918.81;2236197;39;19948;-81
2021/05/17 08:04:34;;;;;;;;;;;;;;;13.40;57.15;98929.91;2243286;39;19986;-77
2021/05/17 08:06:07;;;;;;;;;;;;;;;13.40;56.91;98916.50;2237878;39;19969;-78
2021/05/17 08:07:38;;;;;;;;;;;;;;;13.41;57.16;98930.78;2235071;40;19948;-78
2021/05/17 08:09:09;;;;;;;;;;;;;;;13.37;56.93;98924.06;2232215;39;19950;-78
2021/05/17 08:10:40;;;;;;;;;;;;;;;13.38;57.03;98923.06;2241701;39;19943;-78
2021/05/17 08:12:11;;;;;;;;;;;;;;;13.40;56.41;98934.47;2238369;39;19959;-79
2021/05/17 08:13:42;;;;;;;;;;;;;;;13.38;56.52;98929.25;2237153;39;19948;-79
2021/05/17 08:15:13;;;;;;;;;;;;;;;13.31;56.27;98924.84;2237034;39;19952;-78